createdAt,value
2023-04-05T00:00:30.437Z,38.53
2023-04-05T00:03:13.206Z,38.60
2023-04-05T00:05:43.175Z,35.30
2023-04-05T00:08:12.801Z,41.83
2023-04-05T00:10:42.324Z,29.33
2023-04-05T00:13:09.821Z,24.85
2023-04-05T00:15:36.946Z,23.25
2023-04-05T00:18:04.297Z,23.70
2023-04-05T00:20:33.912Z,26.45
2023-04-05T00:23:03.686Z,22.65
2023-04-05T00:25:33.166Z,21.23
2023-04-05T00:28:01.329Z,25.90
2023-04-05T00:30:28.406Z,24.33
2023-04-05T00:32:58.249Z,21.55
2023-04-05T00:35:30.798Z,21.60
2023-04-05T00:37:58.194Z,22.42
2023-04-05T00:40:27.480Z,26.10
2023-04-05T00:42:54.821Z,24.27
2023-04-05T00:45:21.855Z,20.85
2023-04-05T00:47:49.561Z,20.85
2023-04-05T00:50:16.915Z,19.13
2023-04-05T00:52:45.205Z,19.10
2023-04-05T00:55:14.759Z,21.00
2023-04-05T00:57:42.106Z,17.95
2023-04-05T01:00:11.688Z,22.50
2023-04-05T01:02:51.908Z,24.63
2023-04-05T01:05:44.114Z,21.52
2023-04-05T01:08:26.477Z,21.90
2023-04-05T01:10:58.864Z,19.85
2023-04-05T01:13:26.215Z,18.10
2023-04-05T01:15:53.352Z,16.25
2023-04-05T01:18:20.737Z,18.35
2023-04-05T01:21:00.465Z,19.38
2023-04-05T01:23:40.124Z,15.57
2023-04-05T01:26:21.951Z,17.02
2023-04-05T01:28:58.073Z,18.98
2023-04-05T01:31:50.037Z,23.73
2023-04-05T01:34:49.306Z,22.98
2023-04-05T01:37:24.302Z,25.27
2023-04-05T01:39:52.029Z,24.75
2023-04-05T01:42:24.219Z,26.10
2023-04-05T01:44:55.953Z,24.27
2023-04-05T01:47:23.301Z,25.38
2023-04-05T01:49:50.678Z,26.63
2023-04-05T01:52:17.746Z,25.17
2023-04-05T01:54:47.416Z,25.83
2023-04-05T01:57:14.436Z,19.33
2023-04-05T01:59:41.786Z,20.55
2023-04-05T02:02:11.076Z,22.20
2023-04-05T02:04:40.677Z,20.23
2023-04-05T02:07:10.182Z,23.88
2023-04-05T02:09:37.477Z,21.40
2023-04-05T02:12:04.624Z,20.83
2023-04-05T02:14:32.293Z,18.52
2023-04-05T02:16:59.335Z,21.42
2023-04-05T02:19:26.646Z,21.58
2023-04-05T02:21:53.698Z,26.33
2023-04-05T02:24:21.119Z,24.55
2023-04-05T02:26:48.342Z,48.92
2023-04-05T02:29:18.161Z,26.63
2023-04-05T02:31:45.324Z,21.13
2023-04-05T02:34:14.892Z,20.30
2023-04-05T02:36:44.413Z,17.15
2023-04-05T02:39:11.789Z,15.23
2023-04-05T02:41:41.354Z,21.05
2023-04-05T02:44:08.662Z,16.20
2023-04-05T02:46:35.682Z,15.10
2023-04-05T02:49:05.203Z,13.20
2023-04-05T02:51:32.231Z,12.00
2023-04-05T02:53:59.597Z,11.30
2023-04-05T02:56:26.628Z,10.52
2023-04-05T02:58:54.054Z,11.63
2023-04-05T03:04:01.321Z,10.00
2023-04-05T03:06:28.748Z,9.77
2023-04-05T03:08:55.773Z,9.82
2023-04-05T03:11:23.312Z,10.18
2023-04-05T03:13:50.331Z,8.73
2023-04-05T03:16:17.653Z,11.13
2023-04-05T03:18:44.664Z,10.98
2023-04-05T03:21:12.208Z,12.27
2023-04-05T03:23:39.401Z,11.32
2023-04-05T03:26:06.698Z,9.73
2023-04-05T03:28:35.954Z,9.48
2023-04-05T03:31:05.823Z,9.88
2023-04-05T03:33:32.883Z,10.93
2023-04-05T03:36:02.725Z,10.95
2023-04-05T03:38:32.005Z,10.68
2023-04-05T03:41:02.292Z,10.20
2023-04-05T03:43:29.344Z,10.52
2023-04-05T03:45:56.967Z,10.77
2023-04-05T03:48:26.579Z,11.02
2023-04-05T03:50:53.903Z,9.77
2023-04-05T03:53:20.899Z,10.38
2023-04-05T03:55:48.242Z,10.38
2023-04-05T03:58:16.554Z,10.75
2023-04-05T04:00:43.901Z,10.38
2023-04-05T04:03:10.944Z,11.70
2023-04-05T04:05:41.051Z,14.65
2023-04-05T04:08:08.413Z,13.48
2023-04-05T04:10:35.844Z,13.23
2023-04-05T04:13:05.238Z,15.23
2023-04-05T04:15:32.538Z,12.98
2023-04-05T04:17:59.666Z,13.90
2023-04-05T04:20:27.045Z,12.32
2023-04-05T04:22:56.562Z,11.93
2023-04-05T04:25:26.421Z,11.35
2023-04-05T04:27:53.388Z,11.50
2023-04-05T04:30:22.914Z,14.15
2023-04-05T04:32:52.532Z,14.27
2023-04-05T04:35:24.421Z,14.95
2023-04-05T04:37:58.724Z,14.35
2023-04-05T04:40:29.742Z,15.35
2023-04-05T04:42:56.831Z,15.98
2023-04-05T04:45:24.644Z,16.35
2023-04-05T04:47:51.769Z,14.98
2023-04-05T04:50:20.355Z,15.77
2023-04-05T04:52:49.857Z,15.13
2023-04-05T04:55:19.931Z,14.35
2023-04-05T04:57:46.991Z,25.42
2023-04-05T05:00:14.640Z,26.30
2023-04-05T05:02:43.005Z,16.50
2023-04-05T05:05:11.519Z,15.43
2023-04-05T05:07:40.767Z,16.40
2023-04-05T05:10:10.147Z,15.63
2023-04-05T05:12:38.526Z,15.60
2023-04-05T05:15:10.315Z,16.88
2023-04-05T05:17:40.121Z,15.25
2023-04-05T05:20:08.141Z,14.68
2023-04-05T05:22:37.905Z,15.73
2023-04-05T05:25:07.218Z,15.55
2023-04-05T05:27:34.460Z,17.35
2023-04-05T05:30:01.934Z,17.38
2023-04-05T05:32:29.069Z,18.88
2023-04-05T05:34:56.544Z,18.73
2023-04-05T05:37:33.148Z,20.38
2023-04-05T05:40:00.627Z,19.23
2023-04-05T05:42:27.748Z,21.38
2023-04-05T05:44:55.107Z,20.13
2023-04-05T05:47:22.259Z,19.20
2023-04-05T05:49:49.692Z,20.00
2023-04-05T05:52:17.256Z,30.20
2023-04-05T05:54:44.552Z,25.73
2023-04-05T05:57:11.614Z,22.75
2023-04-05T05:59:38.952Z,21.48
2023-04-05T06:02:05.982Z,22.80
2023-04-05T06:04:33.537Z,22.10
2023-04-05T06:07:03.159Z,21.08
2023-04-05T06:09:32.731Z,21.92
2023-04-05T06:11:59.836Z,21.90
2023-04-05T06:14:27.266Z,19.70
2023-04-05T06:16:54.402Z,20.98
2023-04-05T06:19:23.993Z,18.02
2023-04-05T06:21:50.996Z,18.48
2023-04-05T06:24:18.344Z,17.20
2023-04-05T06:26:45.453Z,17.33
2023-04-05T06:29:12.784Z,16.98
2023-04-05T06:31:42.292Z,18.30
2023-04-05T06:34:09.741Z,17.52
2023-04-05T06:36:36.758Z,19.08
2023-04-05T06:39:05.327Z,17.15
2023-04-05T06:41:35.006Z,16.60
2023-04-05T06:44:02.488Z,12.65
2023-04-05T06:46:29.549Z,10.80
2023-04-05T06:48:58.196Z,7.80
2023-04-05T06:51:27.499Z,6.07
2023-04-05T06:53:57.904Z,5.50
2023-04-05T06:56:29.352Z,4.60
2023-04-05T06:58:58.946Z,4.20
2023-04-05T07:01:26.021Z,4.07
2023-04-05T07:03:56.075Z,4.07
2023-04-05T07:06:25.623Z,4.63
2023-04-05T07:08:52.930Z,4.10
2023-04-05T07:11:22.396Z,4.40
2023-04-05T07:13:49.729Z,4.22
2023-04-05T07:16:16.776Z,4.50
2023-04-05T07:18:44.117Z,4.30
2023-04-05T07:21:11.164Z,4.32
2023-04-05T07:23:38.577Z,4.65
2023-04-05T07:26:06.001Z,4.00
2023-04-05T07:28:34.620Z,4.30
2023-04-05T07:31:02.492Z,4.65
2023-04-05T07:33:30.016Z,4.72
2023-04-05T07:35:57.676Z,3.70
2023-04-05T07:38:27.176Z,4.20
2023-04-05T07:40:54.225Z,4.03
2023-04-05T07:43:24.081Z,4.00
2023-04-05T07:45:51.226Z,4.35
2023-04-05T07:48:18.512Z,5.28
2023-04-05T07:50:48.944Z,4.18
2023-04-05T07:53:16.300Z,3.80
2023-04-05T07:55:43.458Z,3.63
2023-04-05T07:58:13.260Z,3.67
2023-04-05T08:00:40.550Z,3.70
2023-04-05T08:03:08.154Z,3.90
2023-04-05T08:05:35.305Z,3.53
2023-04-05T08:08:02.633Z,3.55
2023-04-05T08:10:29.709Z,3.28
2023-04-05T08:12:57.031Z,3.47
2023-04-05T08:15:24.115Z,2.67
2023-04-05T08:17:51.526Z,3.83
2023-04-05T08:20:20.775Z,3.50
2023-04-05T08:22:48.136Z,4.20
2023-04-05T08:25:15.260Z,3.38
2023-04-05T08:27:42.643Z,3.78
2023-04-05T08:30:10.241Z,3.88
2023-04-05T08:32:37.688Z,3.50
2023-04-05T08:35:07.378Z,3.15
2023-04-05T08:37:40.354Z,3.00
2023-04-05T08:40:09.831Z,2.90
2023-04-05T08:42:46.694Z,2.53
2023-04-05T08:45:17.872Z,2.90
2023-04-05T08:47:46.894Z,2.50
2023-04-05T08:50:14.058Z,2.95
2023-04-05T08:52:45.847Z,2.90
2023-04-05T08:55:13.938Z,2.45
2023-04-05T08:57:49.679Z,2.90
2023-04-05T09:00:19.579Z,2.65
2023-04-05T09:02:54.652Z,2.30
2023-04-05T09:05:24.272Z,2.40
2023-04-05T09:07:54.117Z,2.13
2023-04-05T09:10:22.603Z,2.17
2023-04-05T09:12:53.175Z,2.70
2023-04-05T09:15:21.848Z,2.75
2023-04-05T09:17:49.273Z,2.50
2023-04-05T09:20:16.400Z,2.28
2023-04-05T09:22:45.612Z,2.22
2023-04-05T09:25:31.602Z,2.88
2023-04-05T09:28:02.735Z,2.38
2023-04-05T09:30:29.892Z,2.33
2023-04-05T09:32:57.651Z,2.88
2023-04-05T09:35:29.680Z,3.03
2023-04-05T09:38:00.641Z,3.03
2023-04-05T09:40:47.814Z,2.95
2023-04-05T09:43:35.888Z,2.90
2023-04-05T09:46:05.506Z,4.50
2023-04-05T09:48:49.819Z,3.65
2023-04-05T09:51:17.652Z,3.10
2023-04-05T09:54:07.058Z,2.70
2023-04-05T09:56:36.315Z,2.65
2023-04-05T09:59:11.670Z,3.00
2023-04-05T10:01:43.472Z,3.55
2023-04-05T10:04:13.699Z,2.90
2023-04-05T10:06:42.359Z,2.60
2023-04-05T10:09:11.242Z,2.10
2023-04-05T10:11:44.030Z,2.70
2023-04-05T10:14:11.379Z,2.97
2023-04-05T10:16:52.223Z,2.80
2023-04-05T10:19:48.115Z,2.95
2023-04-05T10:22:22.892Z,2.95
2023-04-05T10:24:54.464Z,2.67
2023-04-05T10:27:47.086Z,2.90
2023-04-05T10:30:16.772Z,2.25
2023-04-05T10:33:11.269Z,2.47
2023-04-05T10:35:41.512Z,2.80
2023-04-05T10:38:25.844Z,2.50
2023-04-05T10:40:57.296Z,2.97
2023-04-05T10:43:26.085Z,2.40
2023-04-05T10:45:55.051Z,2.75
2023-04-05T10:48:48.690Z,2.90
2023-04-05T10:51:16.479Z,2.55
2023-04-05T10:53:48.595Z,2.08
2023-04-05T10:56:18.116Z,2.10
2023-04-05T10:58:45.985Z,2.42
2023-04-05T11:01:17.040Z,2.05
2023-04-05T11:03:49.291Z,1.80
2023-04-05T11:06:30.762Z,2.17
2023-04-05T11:09:18.103Z,2.17
2023-04-05T11:11:51.205Z,1.70
2023-04-05T11:14:37.807Z,2.10
2023-04-05T11:17:27.987Z,2.60
2023-04-05T11:20:05.654Z,2.10
2023-04-05T11:22:33.053Z,2.30
2023-04-05T11:25:02.076Z,2.00
2023-04-05T11:27:34.670Z,2.35
2023-04-05T11:30:06.071Z,2.72
2023-04-05T11:32:44.687Z,2.28
2023-04-05T11:35:18.163Z,2.58
2023-04-05T11:37:55.482Z,2.90
2023-04-05T11:40:29.698Z,2.72
2023-04-05T11:43:10.400Z,2.70
2023-04-05T11:45:39.291Z,2.45
2023-04-05T11:48:12.380Z,2.42
2023-04-05T11:50:40.714Z,2.70
2023-04-05T11:53:11.122Z,2.50
2023-04-05T11:55:39.781Z,2.70
2023-04-05T11:58:15.617Z,2.80
2023-04-05T12:00:43.996Z,2.47
2023-04-05T12:03:15.883Z,2.70
2023-04-05T12:05:52.565Z,2.88
2023-04-05T12:08:21.097Z,2.63
2023-04-05T12:11:00.581Z,3.03
2023-04-05T12:13:36.463Z,2.88
2023-04-05T12:16:05.695Z,3.15
2023-04-05T12:18:41.435Z,2.75
2023-04-05T12:21:11.418Z,2.95
2023-04-05T12:23:41.187Z,3.42
2023-04-05T12:26:10.570Z,2.88
2023-04-05T12:28:54.977Z,2.63
2023-04-05T12:34:08.652Z,2.65
2023-04-05T12:36:36.039Z,2.13
2023-04-05T12:39:07.990Z,2.40
2023-04-05T12:41:36.286Z,2.47
2023-04-05T12:44:14.759Z,2.38
2023-04-05T12:46:46.631Z,2.53
2023-04-05T12:49:17.870Z,3.03
2023-04-05T12:51:48.472Z,5.70
2023-04-05T12:54:22.497Z,2.63
2023-04-05T12:56:53.846Z,2.60
2023-04-05T12:59:21.498Z,2.40
2023-04-05T13:01:51.455Z,3.10
2023-04-05T13:04:18.716Z,2.42
2023-04-05T13:06:48.346Z,3.10
2023-04-05T13:09:15.377Z,3.10
2023-04-05T13:11:42.788Z,2.58
2023-04-05T13:14:09.901Z,2.50
2023-04-05T13:16:39.777Z,2.90
2023-04-05T13:19:06.995Z,3.00
2023-04-05T13:21:37.318Z,2.65
2023-04-05T13:24:04.604Z,2.90
2023-04-05T13:26:34.221Z,3.13
2023-04-05T13:29:06.120Z,4.85
2023-04-05T13:31:33.744Z,3.20
2023-04-05T13:34:00.985Z,2.92
2023-04-05T13:36:28.391Z,2.65
2023-04-05T13:38:55.452Z,3.00
2023-04-05T13:41:22.786Z,5.07
2023-04-05T13:43:50.509Z,2.60
2023-04-05T13:46:17.906Z,13.13
2023-04-05T13:48:44.923Z,9.82
2023-04-05T13:51:15.499Z,2.95
2023-04-05T13:53:45.041Z,2.70
2023-04-05T13:56:12.417Z,2.90
2023-04-05T13:58:39.619Z,2.15
2023-04-05T14:01:09.363Z,2.60
2023-04-05T14:03:36.583Z,3.03
2023-04-05T14:06:04.185Z,2.38
2023-04-05T14:08:31.291Z,2.40
2023-04-05T14:10:58.641Z,2.15
2023-04-05T14:13:25.789Z,2.80
2023-04-05T14:15:53.253Z,3.10
2023-04-05T14:18:20.305Z,4.32
2023-04-05T14:20:47.661Z,2.97
2023-04-05T14:23:16.916Z,3.03
2023-04-05T14:25:44.318Z,2.92
2023-04-05T14:28:11.352Z,2.72
2023-04-05T14:30:41.304Z,2.83
2023-04-05T14:33:08.862Z,3.15
2023-04-05T14:35:36.268Z,3.40
2023-04-05T14:38:05.810Z,2.50
2023-04-05T14:40:33.195Z,3.25
2023-04-05T14:43:00.293Z,3.30
2023-04-05T14:45:27.846Z,3.35
2023-04-05T14:47:55.652Z,2.78
2023-04-05T14:50:23.173Z,2.58
2023-04-05T14:52:50.276Z,16.50
2023-04-05T14:55:19.868Z,3.40
2023-04-05T14:57:47.303Z,2.67
2023-04-05T15:00:17.824Z,8.52
2023-04-05T15:02:45.893Z,5.30
2023-04-05T15:05:13.301Z,3.28
2023-04-05T15:07:40.647Z,3.17
2023-04-05T15:10:10.949Z,3.10
2023-04-05T15:12:38.302Z,3.25
2023-04-05T15:15:06.219Z,3.25
2023-04-05T15:17:35.537Z,3.00
2023-04-05T15:20:05.878Z,3.22
2023-04-05T15:22:33.593Z,4.25
2023-04-05T15:25:01.049Z,4.13
2023-04-05T15:27:28.347Z,3.30
2023-04-05T15:29:55.821Z,2.90
2023-04-05T15:32:25.583Z,3.83
2023-04-05T15:34:52.989Z,3.58
2023-04-05T15:37:22.339Z,3.10
2023-04-05T15:39:49.794Z,3.47
2023-04-05T15:42:16.925Z,14.13
2023-04-05T15:44:44.424Z,6.65
2023-04-05T15:47:11.535Z,6.80
2023-04-05T15:49:41.799Z,2.95
2023-04-05T15:52:11.602Z,3.00
2023-04-05T15:54:38.942Z,3.05
2023-04-05T15:57:10.718Z,5.43
2023-04-05T15:59:38.393Z,4.43
2023-04-05T16:02:05.723Z,4.00
2023-04-05T16:04:35.887Z,3.40
2023-04-05T16:07:02.987Z,3.05
2023-04-05T16:09:30.359Z,3.67
2023-04-05T16:11:57.432Z,3.40
2023-04-05T16:14:25.027Z,3.35
2023-04-05T16:16:54.089Z,3.42
2023-04-05T16:19:24.815Z,3.38
2023-04-05T16:21:52.231Z,3.20
2023-04-05T16:24:19.592Z,3.33
2023-04-05T16:26:48.938Z,2.72
2023-04-05T16:29:16.385Z,4.60
2023-04-05T16:31:43.454Z,3.35
2023-04-05T16:34:10.812Z,3.75
2023-04-05T16:36:37.869Z,3.00
2023-04-05T16:39:05.397Z,3.60
2023-04-05T16:41:34.389Z,2.75
2023-04-05T16:44:01.974Z,3.25
2023-04-05T16:46:29.358Z,4.35
2023-04-05T16:48:56.829Z,3.95
2023-04-05T16:51:23.901Z,3.58
2023-04-05T16:53:51.473Z,12.05
2023-04-05T16:56:18.589Z,9.10
2023-04-05T16:58:45.925Z,10.70
2023-04-05T17:01:12.995Z,3.70
2023-04-05T17:03:40.392Z,3.78
2023-04-05T17:06:07.855Z,3.58
2023-04-05T17:08:35.205Z,3.60
2023-04-05T17:11:02.273Z,3.60
2023-04-05T17:13:29.802Z,3.25
2023-04-05T17:15:56.903Z,4.00
2023-04-05T17:18:24.300Z,3.50
2023-04-05T17:20:51.392Z,3.22
2023-04-05T17:23:18.768Z,4.50
2023-04-05T17:25:45.777Z,4.03
2023-04-05T17:28:13.150Z,3.55
2023-04-05T17:30:40.249Z,3.38
2023-04-05T17:33:07.687Z,3.10
2023-04-05T17:35:34.788Z,3.72
2023-04-05T17:38:04.655Z,3.42
2023-04-05T17:40:34.279Z,3.35
2023-04-05T17:43:01.577Z,4.38
2023-04-05T17:45:34.001Z,21.60
2023-04-05T17:48:01.509Z,14.55
2023-04-05T17:50:31.065Z,4.25
2023-04-05T17:52:58.503Z,3.03
2023-04-05T17:55:25.645Z,3.13
2023-04-05T17:57:52.949Z,3.83
2023-04-05T18:00:20.218Z,3.65
2023-04-05T18:05:18.836Z,3.17
2023-04-05T18:07:46.226Z,3.75
2023-04-05T18:10:13.306Z,4.60
2023-04-05T18:12:44.276Z,3.53
2023-04-05T18:15:11.484Z,3.72
2023-04-05T18:17:40.103Z,6.35
2023-04-05T18:20:07.680Z,11.05
2023-04-05T18:22:35.279Z,4.43
2023-04-05T18:25:02.681Z,4.25
2023-04-05T18:27:31.939Z,4.18
2023-04-05T18:30:01.195Z,4.35
2023-04-05T18:32:28.798Z,4.13
2023-04-05T18:35:00.491Z,3.85
2023-04-05T18:37:30.064Z,3.75
2023-04-05T18:39:57.187Z,4.25
2023-04-05T18:42:25.025Z,3.90
2023-04-05T18:44:52.198Z,3.78
2023-04-05T18:47:19.631Z,4.20
2023-04-05T18:49:49.344Z,3.75
2023-04-05T18:52:19.421Z,4.22
2023-04-05T18:54:46.494Z,4.85
2023-04-05T18:57:13.866Z,7.43
2023-04-05T18:59:41.075Z,4.43
2023-04-05T19:02:08.553Z,5.10
2023-04-05T19:04:35.650Z,14.38
2023-04-05T19:07:03.130Z,23.73
2023-04-05T19:09:32.400Z,30.85
2023-04-05T19:11:59.794Z,8.25
2023-04-05T19:14:26.880Z,4.30
2023-04-05T19:16:54.242Z,26.20
2023-04-05T19:19:21.313Z,11.43
2023-04-05T19:21:48.744Z,5.10
2023-04-05T19:24:18.116Z,4.95
2023-04-05T19:26:45.625Z,5.80
2023-04-05T19:29:12.837Z,4.43
2023-04-05T19:31:40.325Z,4.07
2023-04-05T19:34:09.925Z,4.47
2023-04-05T19:36:40.272Z,4.85
2023-04-05T19:39:11.400Z,4.38
2023-04-05T19:41:38.957Z,4.40
2023-04-05T19:44:12.185Z,4.43
2023-04-05T19:46:41.108Z,4.20
2023-04-05T19:49:11.195Z,5.00
2023-04-05T19:51:42.020Z,4.70
2023-04-05T19:54:12.451Z,4.80
2023-04-05T19:56:42.231Z,4.70
2023-04-05T19:59:29.532Z,4.70
2023-04-05T20:02:01.088Z,5.25
2023-04-05T20:04:28.838Z,5.70
2023-04-05T20:06:56.192Z,5.30
2023-04-05T20:09:28.033Z,5.00
2023-04-05T20:11:58.124Z,5.65
2023-04-05T20:14:29.891Z,5.25
2023-04-05T20:16:58.378Z,5.25
2023-04-05T20:19:31.821Z,5.57
2023-04-05T20:22:02.657Z,5.55
2023-04-05T20:24:30.251Z,6.30
2023-04-05T20:27:02.114Z,6.13
2023-04-05T20:29:31.670Z,5.88
2023-04-05T20:32:02.042Z,6.13
2023-04-05T20:34:34.672Z,5.88
2023-04-05T20:37:08.715Z,6.07
2023-04-05T20:39:35.778Z,5.80
2023-04-05T20:42:03.491Z,6.47
2023-04-05T20:44:32.773Z,5.88
2023-04-05T20:47:00.119Z,7.15
2023-04-05T20:49:27.354Z,7.50
2023-04-05T20:51:54.660Z,7.45
2023-04-05T20:54:21.839Z,7.95
2023-04-05T20:56:49.244Z,8.63
2023-04-05T20:59:16.369Z,9.65
2023-04-05T21:01:46.262Z,9.40
2023-04-05T21:04:13.308Z,10.90
2023-04-05T21:06:43.428Z,12.27
2023-04-05T21:09:10.772Z,12.07
2023-04-05T21:11:40.780Z,12.18
2023-04-05T21:14:08.051Z,35.65
2023-04-05T21:16:35.512Z,25.45
2023-04-05T21:19:04.576Z,17.25
2023-04-05T21:21:31.924Z,17.48
2023-04-05T21:23:59.016Z,15.30
2023-04-05T21:26:26.335Z,15.73
2023-04-05T21:28:53.567Z,16.58
2023-04-05T21:31:20.910Z,15.30
2023-04-05T21:33:47.954Z,14.77
2023-04-05T21:36:15.446Z,15.43
2023-04-05T21:38:42.485Z,15.30
2023-04-05T21:41:09.876Z,14.57
2023-04-05T21:43:36.932Z,15.35
2023-04-05T21:46:04.288Z,24.92
2023-04-05T21:48:31.337Z,17.55
2023-04-05T21:50:58.669Z,14.52
2023-04-05T21:53:25.813Z,13.18
2023-04-05T21:55:53.160Z,13.00
2023-04-05T21:58:22.753Z,10.68
2023-04-05T22:00:52.305Z,11.00
2023-04-05T22:03:19.461Z,12.57
2023-04-05T22:05:46.811Z,9.63
2023-04-05T22:08:16.151Z,10.38
2023-04-05T22:10:43.622Z,10.93
2023-04-05T22:13:10.997Z,50.35
2023-04-05T22:15:38.283Z,35.85
2023-04-05T22:18:07.570Z,15.40
2023-04-05T22:20:34.917Z,11.13
2023-04-05T22:23:02.112Z,11.30
2023-04-05T22:25:29.532Z,9.27
2023-04-05T22:27:58.830Z,9.00
2023-04-05T22:30:28.290Z,9.50
2023-04-05T22:32:57.698Z,9.30
2023-04-05T22:35:25.137Z,9.05
2023-04-05T22:37:52.202Z,10.05
2023-04-05T22:40:19.624Z,9.70
2023-04-05T22:42:46.666Z,10.38
2023-04-05T22:45:14.026Z,12.43
2023-04-05T22:47:41.107Z,11.38
2023-04-05T22:50:09.068Z,11.40
2023-04-05T22:52:36.119Z,11.40
2023-04-05T22:55:06.289Z,11.75
2023-04-05T22:57:33.405Z,11.75
2023-04-05T23:00:00.738Z,12.90
2023-04-05T23:02:27.939Z,13.50
2023-04-05T23:04:59.124Z,13.20
2023-04-05T23:07:28.660Z,13.45
2023-04-05T23:09:58.193Z,13.73
2023-04-05T23:12:27.452Z,12.70
2023-04-05T23:14:54.830Z,15.35
2023-04-05T23:17:21.818Z,15.38
2023-04-05T23:19:49.158Z,15.82
2023-04-05T23:22:16.156Z,17.70
2023-04-05T23:24:43.544Z,16.65
2023-04-05T23:27:10.676Z,15.50
2023-04-05T23:29:38.033Z,13.80
2023-04-05T23:32:05.121Z,14.30
2023-04-05T23:34:32.633Z,14.50
2023-04-05T23:36:59.653Z,15.98
2023-04-05T23:39:26.943Z,17.23
2023-04-05T23:41:53.977Z,20.38
2023-04-05T23:44:21.274Z,22.63
2023-04-05T23:46:48.328Z,21.17
2023-04-05T23:49:15.677Z,23.70
2023-04-05T23:51:42.934Z,27.58
2023-04-05T23:54:10.633Z,28.95
2023-04-05T23:56:38.141Z,29.90
2023-04-05T23:59:08.095Z,29.65
